Time;durP1;ratioP1;P1;durP2;ratioP2;P2;SDS_P1;SDS_P2;PMS_P1;PMS_P2;Temp;Humidity;BMP_temperature;BMP_pressure;BME280_temperature;BME280_humidity;BME280_pressure;Samples;Min_cycle;Max_cycle;Signal;HPM_P1;HPM_P2
2022/02/24 00:02:22;;;;;;;7.22;4.03;;;6.50;84.40;;;;;;4967098;28;20035;-75
2022/02/24 00:04:48;;;;;;;8.85;4.05;;;6.30;85.20;;;;;;4970466;28;20066;-75
2022/02/24 00:07:14;;;;;;;7.00;3.38;;;6.60;84.70;;;;;;4970948;28;20517;-74
2022/02/24 00:09:40;;;;;;;8.40;3.75;;;6.30;85.20;;;;;;4968299;28;20038;-75
2022/02/24 00:12:06;;;;;;;7.10;3.40;;;6.30;85.30;;;;;;4970013;28;20532;-74
2022/02/24 00:14:32;;;;;;;6.90;3.58;;;6.30;85.40;;;;;;4970295;28;20388;-74
2022/02/24 00:16:58;;;;;;;6.75;3.65;;;6.40;85.20;;;;;;4970595;28;20026;-74
2022/02/24 00:19:24;;;;;;;8.70;4.45;;;6.40;84.90;;;;;;4967511;28;20401;-75
2022/02/24 00:21:50;;;;;;;10.88;4.90;;;6.70;84.60;;;;;;4969455;28;20030;-74
2022/02/24 00:24:15;;;;;;;7.68;4.55;;;6.80;84.40;;;;;;4970025;28;20034;-74
2022/02/24 00:26:41;;;;;;;8.68;3.97;;;6.80;84.90;;;;;;4969951;28;20038;-75
2022/02/24 00:29:07;;;;;;;10.18;4.18;;;6.80;84.10;;;;;;4970071;28;20041;-75
2022/02/24 00:31:32;;;;;;;8.90;4.28;;;6.70;84.00;;;;;;4969652;28;20027;-75
2022/02/24 00:34:02;;;;;;;7.20;3.80;;;6.60;84.30;;;;;;4971168;28;20065;-74
2022/02/24 00:36:28;;;;;;;6.10;3.28;;;7.10;82.90;;;;;;4969332;28;20489;-74
2022/02/24 00:38:53;;;;;;;6.82;3.38;;;6.70;83.80;;;;;;4969461;28;20105;-74
2022/02/24 00:41:19;;;;;;;7.68;3.60;;;6.40;84.50;;;;;;4969806;28;20035;-75
2022/02/24 00:43:45;;;;;;;7.80;3.47;;;6.70;83.90;;;;;;4970111;28;20436;-74
2022/02/24 00:46:11;;;;;;;8.23;4.30;;;6.80;83.70;;;;;;4970561;28;20117;-74
2022/02/24 00:48:37;;;;;;;8.07;4.05;;;6.40;85.10;;;;;;4970340;28;20042;-74
2022/02/24 00:51:03;;;;;;;7.65;3.40;;;6.50;84.50;;;;;;4969298;28;20034;-74
2022/02/24 00:53:29;;;;;;;8.05;4.07;;;6.70;83.70;;;;;;4968003;28;20026;-74
2022/02/24 00:55:54;;;;;;;6.93;3.75;;;6.70;83.70;;;;;;4969306;28;20097;-74
2022/02/24 00:58:22;;;;;;;8.32;4.97;;;6.70;83.90;;;;;;4969705;28;20101;-74
2022/02/24 01:00:49;;;;;;;8.68;4.38;;;6.80;83.30;;;;;;4970258;28;20489;-74
2022/02/24 01:03:14;;;;;;;8.90;3.90;;;6.80;83.50;;;;;;4972084;28;20086;-74
2022/02/24 01:05:40;;;;;;;8.77;4.53;;;6.60;84.00;;;;;;4972275;28;20046;-74
2022/02/24 01:08:05;;;;;;;11.43;5.80;;;6.50;84.40;;;;;;4970099;28;20043;-74
2022/02/24 01:10:31;;;;;;;7.72;3.95;;;6.40;84.60;;;;;;4974031;28;20030;-74
2022/02/24 01:12:57;;;;;;;12.65;5.50;;;6.40;84.90;;;;;;4972914;28;20034;-74
2022/02/24 01:15:22;;;;;;;7.28;3.65;;;6.90;83.70;;;;;;4973688;28;20042;-74
2022/02/24 01:17:48;;;;;;;13.38;4.68;;;6.90;83.30;;;;;;4971267;28;20027;-74
2022/02/24 01:20:14;;;;;;;7.05;4.30;;;6.90;83.30;;;;;;4969117;28;20480;-74
2022/02/24 01:22:40;;;;;;;12.75;5.07;;;6.60;84.40;;;;;;4973325;28;20041;-74
2022/02/24 01:25:06;;;;;;;6.72;3.70;;;6.60;84.00;;;;;;4970810;28;20041;-74
2022/02/24 01:27:32;;;;;;;10.25;3.60;;;6.50;84.20;;;;;;4971921;28;20031;-74
2022/02/24 01:29:58;;;;;;;9.82;4.07;;;6.20;85.40;;;;;;4970328;28;20085;-74
2022/02/24 01:32:24;;;;;;;8.32;4.07;;;6.00;85.70;;;;;;4973580;28;20059;-74
2022/02/24 01:34:58;;;;;;;7.43;4.22;;;6.20;85.30;;;;;;4972934;28;20030;-74
2022/02/24 01:37:26;;;;;;;8.65;4.43;;;6.20;85.20;;;;;;4972056;28;20102;-75
2022/02/24 01:39:52;;;;;;;11.07;3.53;;;6.20;85.30;;;;;;4971686;28;20105;-74
2022/02/24 01:42:17;;;;;;;7.07;3.70;;;6.00;85.60;;;;;;4972372;28;20042;-74
2022/02/24 01:44:45;;;;;;;7.88;3.63;;;6.00;85.80;;;;;;4972733;28;20124;-74
2022/02/24 01:47:11;;;;;;;6.95;3.85;;;5.90;86.20;;;;;;4971726;28;20034;-74
2022/02/24 01:49:38;;;;;;;7.35;3.42;;;5.80;86.60;;;;;;4971964;28;20027;-74
2022/02/24 01:52:06;;;;;;;9.15;3.97;;;5.60;87.10;;;;;;4973219;28;20188;-74
2022/02/24 01:54:34;;;;;;;7.75;4.07;;;5.60;86.90;;;;;;4973953;28;20114;-74
2022/02/24 01:57:00;;;;;;;7.88;3.25;;;5.60;87.10;;;;;;4971676;28;20396;-74
2022/02/24 01:59:26;;;;;;;8.02;3.58;;;5.60;87.10;;;;;;4971884;28;20345;-74
2022/02/24 02:01:52;;;;;;;7.72;4.00;;;5.60;87.30;;;;;;4972193;28;20023;-74
2022/02/24 02:04:18;;;;;;;7.32;4.00;;;5.50;87.30;;;;;;4968339;28;20058;-74
2022/02/24 02:06:44;;;;;;;9.57;4.28;;;5.50;87.50;;;;;;4967820;28;20039;-74
2022/02/24 02:09:10;;;;;;;7.53;4.45;;;5.30;87.90;;;;;;4969240;28;20030;-74
2022/02/24 02:11:36;;;;;;;7.40;3.60;;;5.40;88.00;;;;;;4970223;28;20030;-74
2022/02/24 02:14:03;;;;;;;7.82;3.92;;;5.60;87.30;;;;;;4971318;28;20038;-74
2022/02/24 02:16:28;;;;;;;7.68;4.28;;;5.60;87.50;;;;;;4967717;28;20114;-74
2022/02/24 02:18:54;;;;;;;9.80;4.20;;;5.40;88.10;;;;;;4972264;28;20118;-74
2022/02/24 02:21:20;;;;;;;6.32;3.63;;;5.20;88.20;;;;;;4972609;28;20480;-75
2022/02/24 02:23:46;;;;;;;9.82;4.28;;;5.30;88.50;;;;;;4968999;28;20055;-74
2022/02/24 02:26:11;;;;;;;8.32;3.72;;;5.40;87.70;;;;;;4971439;28;20071;-74
2022/02/24 02:28:37;;;;;;;8.55;4.03;;;5.30;88.00;;;;;;4962062;28;20043;-74
2022/02/24 02:31:03;;;;;;;7.10;4.50;;;5.40;87.50;;;;;;4968601;28;20128;-74
2022/02/24 02:33:29;;;;;;;7.47;4.32;;;5.50;87.50;;;;;;4970754;28;20035;-74
2022/02/24 02:35:54;;;;;;;8.75;4.95;;;5.60;87.50;;;;;;4971514;28;20057;-75
2022/02/24 02:38:20;;;;;;;9.48;5.18;;;5.50;87.20;;;;;;4972003;28;20045;-75
2022/02/24 02:40:46;;;;;;;7.45;4.20;;;5.50;87.10;;;;;;4971348;28;20392;-75
2022/02/24 02:43:11;;;;;;;7.45;3.53;;;5.50;87.70;;;;;;4971910;28;20046;-75
2022/02/24 02:45:38;;;;;;;8.70;3.17;;;5.30;87.60;;;;;;4966462;28;20053;-75
2022/02/24 02:48:06;;;;;;;6.82;3.15;;;5.30;87.90;;;;;;4965936;28;20031;-74
2022/02/24 02:50:32;;;;;;;8.80;3.50;;;5.20;88.10;;;;;;4969236;28;20043;-75
2022/02/24 02:53:02;;;;;;;6.85;3.60;;;5.20;88.50;;;;;;4966913;28;20035;-75
2022/02/24 02:55:28;;;;;;;13.52;4.05;;;4.90;89.50;;;;;;4972112;28;20100;-75
2022/02/24 02:57:53;;;;;;;8.02;3.63;;;4.90;89.60;;;;;;4970776;28;20149;-74
2022/02/24 03:00:19;;;;;;;7.63;4.15;;;5.10;88.90;;;;;;4966303;28;20023;-75
2022/02/24 03:02:45;;;;;;;10.07;4.25;;;5.30;88.10;;;;;;4971529;28;20038;-75
2022/02/24 03:05:11;;;;;;;7.18;3.70;;;5.50;87.40;;;;;;4970851;28;20401;-75
2022/02/24 03:07:37;;;;;;;7.07;3.75;;;5.30;87.60;;;;;;4970050;28;20081;-75
2022/02/24 03:10:05;;;;;;;6.78;3.05;;;5.00;88.60;;;;;;4969568;28;20034;-75
2022/02/24 03:12:35;;;;;;;12.43;3.58;;;4.80;89.60;;;;;;4966946;28;20341;-76
2022/02/24 03:15:08;;;;;;;6.68;3.35;;;4.70;89.80;;;;;;4963626;28;20108;-75
2022/02/24 03:17:35;;;;;;;7.32;3.80;;;4.80;89.60;;;;;;4966145;28;20023;-75
2022/02/24 03:20:00;;;;;;;6.95;3.10;;;4.90;89.10;;;;;;4966818;28;20046;-75
2022/02/24 03:22:26;;;;;;;6.30;2.95;;;5.00;88.80;;;;;;4964064;28;20042;-75
2022/02/24 03:24:52;;;;;;;8.48;3.75;;;4.80;89.40;;;;;;4965795;28;20693;-76
2022/02/24 03:27:17;;;;;;;7.13;4.20;;;4.60;90.10;;;;;;4964151;28;20045;-75
2022/02/24 03:29:43;;;;;;;8.90;3.97;;;4.70;89.90;;;;;;4966052;28;20066;-75
2022/02/24 03:32:09;;;;;;;8.27;3.63;;;4.90;89.40;;;;;;4963985;28;20035;-76
2022/02/24 03:34:35;;;;;;;8.93;4.05;;;4.90;89.20;;;;;;4965442;28;20089;-75
2022/02/24 03:37:00;;;;;;;7.15;3.58;;;5.20;88.30;;;;;;4963957;28;20031;-75
2022/02/24 03:39:26;;;;;;;9.55;3.63;;;5.10;88.40;;;;;;4966237;28;20141;-75
2022/02/24 03:41:52;;;;;;;11.48;3.78;;;5.00;88.50;;;;;;4972193;28;20035;-75
2022/02/24 03:44:18;;;;;;;6.18;3.08;;;5.10;88.30;;;;;;4966199;28;20034;-76
2022/02/24 03:46:43;;;;;;;6.82;3.38;;;5.00;88.30;;;;;;4965770;28;20144;-76
2022/02/24 03:49:09;;;;;;;6.50;3.33;;;5.10;87.90;;;;;;4966364;28;20031;-75
2022/02/24 03:51:35;;;;;;;6.40;3.47;;;5.00;88.20;;;;;;4966105;28;20540;-76
2022/02/24 03:54:00;;;;;;;5.90;3.35;;;5.00;88.30;;;;;;4965970;28;20091;-76
2022/02/24 03:56:26;;;;;;;6.88;3.55;;;5.20;87.40;;;;;;4965852;28;20113;-75
2022/02/24 03:58:52;;;;;;;10.05;3.47;;;5.20;87.20;;;;;;4964422;28;20034;-75
2022/02/24 04:01:18;;;;;;;6.45;3.03;;;5.20;87.50;;;;;;4960630;28;20078;-76
2022/02/24 04:03:44;;;;;;;7.45;3.45;;;5.00;87.90;;;;;;4964986;28;20784;-74
2022/02/24 04:06:10;;;;;;;7.82;3.38;;;5.20;87.40;;;;;;4965504;28;20228;-74
2022/02/24 04:08:36;;;;;;;5.97;3.05;;;4.80;88.80;;;;;;4966857;28;20193;-74
2022/02/24 04:11:02;;;;;;;8.38;3.13;;;4.70;89.50;;;;;;4964518;28;20504;-74
2022/02/24 04:13:27;;;;;;;8.10;3.58;;;4.60;90.00;;;;;;4964149;28;20026;-74
2022/02/24 04:15:53;;;;;;;5.80;3.60;;;4.50;90.00;;;;;;4967000;28;20052;-74
2022/02/24 04:18:19;;;;;;;9.75;3.10;;;4.60;89.60;;;;;;4966859;28;20085;-74
2022/02/24 04:20:46;;;;;;;6.45;3.10;;;4.70;89.40;;;;;;4966462;28;20027;-75
2022/02/24 04:23:13;;;;;;;7.22;2.92;;;4.60;89.60;;;;;;4964093;28;20045;-74
2022/02/24 04:25:38;;;;;;;5.38;2.90;;;4.70;89.00;;;;;;4970659;28;20997;-75
2022/02/24 04:28:04;;;;;;;6.53;3.35;;;4.50;89.50;;;;;;4957846;28;20038;-74
2022/02/24 04:30:30;;;;;;;6.22;3.10;;;4.60;89.90;;;;;;4957683;28;20109;-74
2022/02/24 04:32:56;;;;;;;6.45;2.80;;;4.60;89.60;;;;;;4955877;28;20035;-75
2022/02/24 04:35:22;;;;;;;6.05;2.80;;;4.50;89.80;;;;;;4962567;28;20038;-75
2022/02/24 04:37:47;;;;;;;5.38;2.78;;;4.70;89.30;;;;;;4961227;28;20030;-74
2022/02/24 04:40:15;;;;;;;6.68;3.15;;;4.60;89.60;;;;;;4970714;28;20794;-75
2022/02/24 04:42:42;;;;;;;6.93;2.75;;;4.60;89.20;;;;;;4967534;28;20236;-74
2022/02/24 04:45:08;;;;;;;6.85;2.70;;;4.60;89.40;;;;;;4960707;28;20035;-74
2022/02/24 04:47:34;;;;;;;5.85;3.20;;;4.50;89.50;;;;;;4966225;28;20031;-74
2022/02/24 04:49:59;;;;;;;7.57;3.13;;;4.30;90.00;;;;;;4965864;28;20031;-75
2022/02/24 04:52:25;;;;;;;6.55;2.95;;;4.40;89.80;;;;;;4968359;28;20035;-74
2022/02/24 04:54:51;;;;;;;5.60;2.50;;;4.40;89.90;;;;;;4971491;28;20096;-74
2022/02/24 04:57:16;;;;;;;5.47;2.85;;;4.50;90.00;;;;;;4967926;28;20550;-74
2022/02/24 04:59:42;;;;;;;4.72;2.40;;;4.30;89.90;;;;;;4943579;28;20046;-75
2022/02/24 05:02:08;;;;;;;8.73;3.05;;;4.10;90.40;;;;;;4971292;28;20444;-74
2022/02/24 05:04:33;;;;;;;5.88;2.72;;;3.90;90.60;;;;;;4966700;28;20051;-75
2022/02/24 05:06:59;;;;;;;5.90;2.90;;;4.00;90.80;;;;;;4966694;28;20039;-75
2022/02/24 05:09:25;;;;;;;7.13;3.05;;;4.00;90.80;;;;;;4965588;28;20042;-74
2022/02/24 05:11:51;;;;;;;6.28;2.83;;;4.20;90.40;;;;;;4960013;28;20137;-74
2022/02/24 05:14:17;;;;;;;7.63;3.35;;;4.30;90.20;;;;;;4964590;28;20058;-74
2022/02/24 05:16:43;;;;;;;5.63;2.88;;;4.50;89.90;;;;;;4962665;28;20405;-74
2022/02/24 05:19:09;;;;;;;5.93;2.85;;;4.30;89.90;;;;;;4962341;28;20027;-75
2022/02/24 05:21:34;;;;;;;5.18;2.90;;;4.40;89.70;;;;;;4958088;28;20061;-74
2022/02/24 05:24:00;;;;;;;7.38;3.45;;;4.20;90.40;;;;;;4958550;28;20055;-75
2022/02/24 05:26:26;;;;;;;7.25;2.60;;;4.10;90.30;;;;;;4961928;28;21368;-74
2022/02/24 05:28:51;;;;;;;6.13;2.90;;;4.00;90.40;;;;;;4961667;28;20042;-74
2022/02/24 05:31:17;;;;;;;7.28;2.80;;;3.90;90.60;;;;;;4960182;28;20042;-74
2022/02/24 05:33:43;;;;;;;8.15;3.10;;;4.00;90.60;;;;;;4967069;28;20034;-75
2022/02/24 05:36:08;;;;;;;5.65;2.72;;;3.90;90.60;;;;;;4960563;28;20055;-74
2022/02/24 05:38:35;;;;;;;5.65;3.05;;;3.80;90.70;;;;;;4965309;28;20489;-74
2022/02/24 05:41:01;;;;;;;5.55;2.85;;;4.00;90.60;;;;;;4965645;28;20043;-74
2022/02/24 05:43:27;;;;;;;4.95;2.38;;;4.10;90.40;;;;;;4966126;28;20038;-74
2022/02/24 05:45:52;;;;;;;7.18;3.25;;;4.30;90.30;;;;;;4966320;28;20519;-76
2022/02/24 05:48:18;;;;;;;7.75;2.97;;;4.10;90.30;;;;;;4965056;28;20081;-75
2022/02/24 05:50:44;;;;;;;5.97;2.90;;;4.10;90.40;;;;;;4964762;28;20410;-75
2022/02/24 05:53:09;;;;;;;7.93;2.60;;;4.00;90.40;;;;;;4965665;28;20068;-74
2022/02/24 05:55:36;;;;;;;6.05;2.58;;;4.00;90.40;;;;;;4961035;28;20042;-74
2022/02/24 05:58:03;;;;;;;8.90;2.85;;;3.80;90.80;;;;;;4959810;28;20039;-75
2022/02/24 06:00:29;;;;;;;7.70;3.60;;;3.80;90.80;;;;;;4965712;28;20030;-74
2022/02/24 06:02:54;;;;;;;5.70;2.85;;;3.70;91.00;;;;;;4960606;28;20077;-76
2022/02/24 06:05:20;;;;;;;5.50;2.38;;;3.80;91.10;;;;;;4965316;28;20095;-75
2022/02/24 06:07:47;;;;;;;6.63;2.72;;;3.70;91.10;;;;;;4961172;28;20038;-76
2022/02/24 06:10:14;;;;;;;5.32;2.58;;;3.70;91.00;;;;;;4964770;28;20619;-74
2022/02/24 06:12:40;;;;;;;6.22;2.75;;;3.70;91.00;;;;;;4964791;28;20540;-75
2022/02/24 06:15:08;;;;;;;7.00;2.60;;;3.70;91.00;;;;;;4959737;28;20093;-74
2022/02/24 06:17:35;;;;;;;7.18;2.90;;;3.80;91.00;;;;;;4961985;28;20205;-74
2022/02/24 06:20:01;;;;;;;5.60;2.90;;;4.00;90.60;;;;;;4962761;28;20034;-74
2022/02/24 06:22:26;;;;;;;6.13;3.35;;;4.10;90.40;;;;;;4955453;28;20045;-74
2022/02/24 06:24:52;;;;;;;7.13;2.83;;;3.90;90.90;;;;;;4959117;28;20110;-74
2022/02/24 06:27:18;;;;;;;6.70;2.80;;;3.80;91.00;;;;;;4963865;28;20037;-75
2022/02/24 06:29:45;;;;;;;5.47;2.42;;;3.80;91.10;;;;;;4969845;28;20058;-76
2022/02/24 06:32:13;;;;;;;7.13;2.42;;;3.90;91.00;;;;;;4962712;28;20046;-75
2022/02/24 06:34:39;;;;;;;8.00;3.03;;;3.90;90.70;;;;;;4962913;28;20038;-75
2022/02/24 06:37:06;;;;;;;7.68;4.00;;;4.00;90.70;;;;;;4967016;28;20027;-74
2022/02/24 06:39:31;;;;;;;7.13;3.65;;;4.20;90.70;;;;;;4964443;28;20034;-73
2022/02/24 06:41:57;;;;;;;9.18;3.88;;;4.10;90.50;;;;;;4965121;28;20477;-73
2022/02/24 06:44:23;;;;;;;9.20;4.25;;;4.20;90.50;;;;;;4965380;28;20044;-73
2022/02/24 06:46:49;;;;;;;6.60;3.92;;;4.10;90.70;;;;;;4965331;28;20101;-73
2022/02/24 06:49:14;;;;;;;8.15;3.67;;;4.20;90.60;;;;;;4965114;28;20031;-73
2022/02/24 06:51:40;;;;;;;6.80;3.60;;;4.00;91.20;;;;;;4965091;28;20054;-73
2022/02/24 06:54:05;;;;;;;6.32;3.05;;;3.90;91.50;;;;;;4965464;28;20627;-73
2022/02/24 06:56:31;;;;;;;8.00;2.78;;;3.80;91.60;;;;;;4964273;28;20038;-73
2022/02/24 06:58:57;;;;;;;7.57;2.92;;;3.90;91.40;;;;;;4963906;28;20722;-73
2022/02/24 07:01:23;;;;;;;7.88;2.97;;;4.00;91.30;;;;;;4964221;28;20035;-73
2022/02/24 07:03:49;;;;;;;7.72;3.15;;;4.10;91.30;;;;;;4964128;28;20073;-73
2022/02/24 07:06:14;;;;;;;7.35;2.67;;;4.10;91.20;;;;;;4964711;28;20680;-73
2022/02/24 07:08:40;;;;;;;4.68;2.15;;;4.20;91.40;;;;;;4965161;28;20182;-73
2022/02/24 07:11:06;;;;;;;5.82;2.65;;;4.40;90.80;;;;;;4965465;28;20030;-73
2022/02/24 07:13:32;;;;;;;6.57;3.28;;;4.50;90.50;;;;;;4964249;28;20050;-73
2022/02/24 07:15:57;;;;;;;6.07;3.03;;;4.50;91.20;;;;;;4963072;28;20413;-73
2022/02/24 07:18:23;;;;;;;8.32;2.70;;;4.30;91.40;;;;;;4963573;28;20054;-73
2022/02/24 07:20:49;;;;;;;6.13;2.72;;;4.40;91.80;;;;;;4965044;28;20113;-74
2022/02/24 07:23:15;;;;;;;6.43;2.97;;;4.50;91.40;;;;;;4964144;28;20495;-73
2022/02/24 07:25:40;;;;;;;8.25;3.47;;;4.50;91.30;;;;;;4964606;28;20512;-74
2022/02/24 07:28:07;;;;;;;7.65;2.20;;;4.30;91.40;;;;;;4964826;28;20038;-73
2022/02/24 07:30:36;;;;;;;8.95;2.70;;;4.20;91.30;;;;;;4965191;28;20126;-72
2022/02/24 07:33:02;;;;;;;6.57;2.80;;;4.40;91.50;;;;;;4961931;28;20042;-72
2022/02/24 07:35:28;;;;;;;6.57;2.67;;;4.60;91.80;;;;;;4963946;28;20672;-73
2022/02/24 07:37:54;;;;;;;9.20;3.03;;;4.80;92.40;;;;;;4964849;28;20041;-73
2022/02/24 07:40:20;;;;;;;6.45;2.63;;;4.90;92.40;;;;;;4964675;28;20858;-74
2022/02/24 07:42:45;;;;;;;8.70;2.75;;;5.00;92.50;;;;;;4965394;28;20045;-74
2022/02/24 07:45:11;;;;;;;4.85;2.80;;;4.90;92.10;;;;;;4961122;28;20166;-73
2022/02/24 07:47:37;;;;;;;5.63;2.70;;;4.80;91.60;;;;;;4964912;28;20048;-74
2022/02/24 07:50:04;;;;;;;5.43;2.80;;;4.80;90.90;;;;;;4964478;28;20122;-74
2022/02/24 07:52:29;;;;;;;6.70;2.60;;;4.90;91.00;;;;;;4964746;28;20046;-73
2022/02/24 07:54:55;;;;;;;6.57;3.10;;;5.00;91.10;;;;;;4961900;28;20031;-73
2022/02/24 07:57:21;;;;;;;8.35;2.78;;;5.00;90.60;;;;;;4964728;28;20027;-73
2022/02/24 07:59:47;;;;;;;5.05;2.00;;;5.10;90.50;;;;;;4964585;28;20035;-73
2022/02/24 08:02:13;;;;;;;6.30;3.03;;;5.20;89.40;;;;;;4963650;28;20775;-73
2022/02/24 08:04:39;;;;;;;10.43;4.10;;;5.20;90.50;;;;;;4964656;28;20059;-73
2022/02/24 08:07:04;;;;;;;6.93;3.40;;;5.20;91.20;;;;;;4964852;28;20066;-74
2022/02/24 08:09:30;;;;;;;6.03;3.58;;;5.10;91.40;;;;;;4964662;28;20078;-72
2022/02/24 08:14:40;;;;;;;6.93;3.35;;;4.90;91.70;;;;;;4958699;28;20109;-73
2022/02/24 08:17:06;;;;;;;9.80;4.55;;;5.00;92.20;;;;;;4959888;28;20035;-73
2022/02/24 08:19:33;;;;;;;8.57;3.58;;;5.20;92.00;;;;;;4966969;28;20038;-73
2022/02/24 08:21:59;;;;;;;9.15;4.32;;;5.60;91.90;;;;;;4967554;28;20042;-74
2022/02/24 08:24:25;;;;;;;7.28;3.58;;;5.30;91.70;;;;;;4968618;28;20042;-74
2022/02/24 08:26:51;;;;;;;6.75;3.67;;;5.20;91.50;;;;;;4967243;28;20053;-73
2022/02/24 08:29:17;;;;;;;6.10;3.33;;;5.30;91.60;;;;;;4967760;28;20376;-74
2022/02/24 08:31:43;;;;;;;5.55;3.25;;;5.30;92.30;;;;;;4967682;28;20027;-74
2022/02/24 08:34:09;;;;;;;8.23;4.20;;;5.30;92.30;;;;;;4959298;28;20062;-74
2022/02/24 08:36:34;;;;;;;7.88;4.22;;;5.20;91.70;;;;;;4967220;28;20107;-74
2022/02/24 08:39:01;;;;;;;6.68;3.63;;;5.20;91.40;;;;;;4968001;28;20031;-74
2022/02/24 08:41:27;;;;;;;6.78;3.05;;;5.20;91.40;;;;;;4967572;28;20034;-74
2022/02/24 08:43:52;;;;;;;5.72;2.80;;;5.30;90.90;;;;;;4967681;28;20042;-74
2022/02/24 08:46:18;;;;;;;4.97;2.40;;;5.50;90.20;;;;;;4968272;28;20103;-74
2022/02/24 08:48:44;;;;;;;4.57;2.78;;;5.50;88.30;;;;;;4967567;28;20404;-74
2022/02/24 08:51:09;;;;;;;8.05;3.33;;;5.60;88.30;;;;;;4965991;28;20045;-75
2022/02/24 08:53:35;;;;;;;6.65;2.83;;;5.70;89.70;;;;;;4967504;28;20041;-74
2022/02/24 08:56:01;;;;;;;7.13;3.33;;;5.90;89.80;;;;;;4968232;28;20074;-74
2022/02/24 08:58:26;;;;;;;6.88;3.20;;;6.00;90.40;;;;;;4967542;28;20150;-74
2022/02/24 09:00:52;;;;;;;7.00;2.70;;;6.00;90.00;;;;;;4967911;28;20078;-74
2022/02/24 09:03:18;;;;;;;6.15;2.88;;;6.10;88.50;;;;;;4967721;28;20046;-74
2022/02/24 09:05:45;;;;;;;7.70;2.90;;;6.00;89.10;;;;;;4967948;28;20074;-74
2022/02/24 09:08:11;;;;;;;8.90;3.92;;;6.10;90.00;;;;;;4967243;28;20039;-74
2022/02/24 09:10:38;;;;;;;7.72;4.10;;;6.10;90.10;;;;;;4967592;28;20051;-74
2022/02/24 09:13:04;;;;;;;6.63;3.40;;;6.10;89.70;;;;;;4967533;28;20042;-74
2022/02/24 09:15:35;;;;;;;8.20;3.63;;;6.10;89.60;;;;;;4968056;28;20045;-74
2022/02/24 09:18:02;;;;;;;8.65;3.45;;;6.20;89.60;;;;;;4967127;28;20026;-75
2022/02/24 09:20:29;;;;;;;8.52;3.42;;;6.20;90.10;;;;;;4967395;28;20043;-74
2022/02/24 09:22:55;;;;;;;7.03;3.28;;;6.20;90.00;;;;;;4967997;28;20603;-74
2022/02/24 09:25:23;;;;;;;9.65;3.40;;;6.30;88.90;;;;;;4971170;28;20062;-74
2022/02/24 09:27:49;;;;;;;8.35;3.33;;;6.30;89.00;;;;;;4971129;28;20678;-74
2022/02/24 09:30:16;;;;;;;7.95;3.70;;;6.30;87.90;;;;;;4970851;28;20066;-74
2022/02/24 09:32:43;;;;;;;6.68;2.78;;;6.40;87.50;;;;;;4970583;28;20054;-74
2022/02/24 09:35:10;;;;;;;8.07;3.00;;;6.50;86.80;;;;;;4970789;28;20126;-74
2022/02/24 09:37:36;;;;;;;7.20;3.63;;;6.60;86.70;;;;;;4968797;28;20070;-74
2022/02/24 09:40:06;;;;;;;6.53;3.47;;;6.50;86.90;;;;;;4967692;28;20089;-74
2022/02/24 09:42:34;;;;;;;13.30;4.05;;;6.60;87.10;;;;;;4969355;28;20031;-74
2022/02/24 09:44:59;;;;;;;7.88;3.05;;;6.70;87.40;;;;;;4969929;28;20046;-74
2022/02/24 09:47:28;;;;;;;7.63;2.88;;;6.70;85.20;;;;;;4970285;28;20038;-74
2022/02/24 09:49:55;;;;;;;7.95;3.67;;;6.80;85.90;;;;;;4970525;28;20507;-74
2022/02/24 09:52:21;;;;;;;7.68;2.97;;;6.80;85.30;;;;;;4969894;28;20030;-74
2022/02/24 09:54:46;;;;;;;6.13;2.58;;;7.00;84.80;;;;;;4970356;28;20128;-74
2022/02/24 09:57:12;;;;;;;8.00;2.75;;;7.10;83.70;;;;;;4970657;28;20047;-74
2022/02/24 09:59:38;;;;;;;9.57;3.17;;;7.00;83.20;;;;;;4969626;28;20113;-74
2022/02/24 10:02:04;;;;;;;11.02;3.03;;;7.10;84.00;;;;;;4970644;28;20059;-73
2022/02/24 10:04:30;;;;;;;5.38;2.50;;;7.20;83.10;;;;;;4970872;28;20047;-74
2022/02/24 10:06:56;;;;;;;6.20;2.55;;;7.30;81.70;;;;;;4970297;28;20046;-74
2022/02/24 10:09:31;;;;;;;3.35;1.65;;;7.30;81.30;;;;;;4970215;28;20059;-75
2022/02/24 10:12:10;;;;;;;7.07;2.33;;;7.40;82.30;;;;;;4969324;28;20492;-74
2022/02/24 10:14:37;;;;;;;3.90;2.03;;;7.50;83.10;;;;;;4969842;28;20042;-74
2022/02/24 10:17:05;;;;;;;5.57;2.78;;;7.60;82.50;;;;;;4969584;28;20027;-74
2022/02/24 10:19:45;;;;;;;3.90;1.83;;;7.70;82.00;;;;;;4969212;28;20038;-73
2022/02/24 10:22:26;;;;;;;5.40;2.17;;;7.80;80.90;;;;;;4969645;28;20038;-74
2022/02/24 10:24:59;;;;;;;3.92;2.17;;;7.80;80.30;;;;;;4969122;28;20574;-74
2022/02/24 10:27:27;;;;;;;4.78;2.38;;;7.80;80.80;;;;;;4968868;28;20042;-74
2022/02/24 10:29:58;;;;;;;6.82;1.52;;;7.90;80.30;;;;;;4968908;28;20500;-74
2022/02/24 10:32:43;;;;;;;5.97;2.88;;;8.00;80.40;;;;;;4969545;28;20038;-74
2022/02/24 10:35:21;;;;;;;5.72;2.10;;;8.00;80.00;;;;;;4968490;28;20476;-75
2022/02/24 10:38:03;;;;;;;7.00;2.75;;;8.10;81.00;;;;;;4969730;28;20833;-74
2022/02/24 10:40:43;;;;;;;4.80;2.22;;;8.30;79.90;;;;;;4968753;28;20035;-74
2022/02/24 10:43:18;;;;;;;6.50;2.03;;;8.40;80.80;;;;;;4968473;28;20287;-74
2022/02/24 10:46:08;;;;;;;5.53;2.67;;;8.50;80.10;;;;;;4968951;28;20497;-74
2022/02/24 10:48:48;;;;;;;4.18;1.90;;;8.60;79.60;;;;;;4968381;28;20039;-74
2022/02/24 10:51:26;;;;;;;8.80;3.72;;;8.80;80.20;;;;;;4969374;28;20034;-73
2022/02/24 10:54:06;;;;;;;11.80;3.92;;;9.00;80.00;;;;;;4969458;28;20042;-74
2022/02/24 10:56:35;;;;;;;6.10;2.75;;;9.20;80.40;;;;;;4968760;28;20656;-74
2022/02/24 10:59:01;;;;;;;5.68;2.97;;;9.10;78.90;;;;;;4968923;28;20035;-74
2022/02/24 11:01:29;;;;;;;12.57;3.17;;;9.20;79.10;;;;;;4967515;28;20038;-74
2022/02/24 11:04:00;;;;;;;6.32;4.18;;;9.30;79.70;;;;;;4966689;28;20117;-74
2022/02/24 11:06:28;;;;;;;8.38;5.35;;;9.30;79.10;;;;;;4967760;28;20062;-74
2022/02/24 11:08:55;;;;;;;4.85;2.13;;;9.30;79.20;;;;;;4968555;28;20029;-74
2022/02/24 11:11:24;;;;;;;7.35;2.22;;;9.40;80.20;;;;;;4968563;28;20031;-75
2022/02/24 11:13:51;;;;;;;4.93;2.70;;;9.30;79.20;;;;;;4968143;28;20035;-74
2022/02/24 11:16:18;;;;;;;4.90;2.33;;;9.30;78.60;;;;;;4968638;28;20059;-74
2022/02/24 11:18:45;;;;;;;5.82;3.17;;;9.40;79.20;;;;;;4968458;28;20114;-74
2022/02/24 11:21:13;;;;;;;5.20;2.10;;;9.50;78.10;;;;;;4968024;28;20034;-74
2022/02/24 11:23:43;;;;;;;5.65;2.72;;;9.60;78.90;;;;;;4968140;28;20041;-74
2022/02/24 11:26:21;;;;;;;6.40;2.42;;;9.50;77.80;;;;;;4968770;28;20027;-74
2022/02/24 11:29:15;;;;;;;6.80;2.97;;;9.60;77.10;;;;;;4968680;28;20046;-74
2022/02/24 11:31:54;;;;;;;9.30;4.13;;;9.60;77.10;;;;;;4967580;28;20827;-74
2022/02/24 11:34:53;;;;;;;6.15;3.33;;;9.80;78.50;;;;;;4967749;28;20038;-74
2022/02/24 11:37:37;;;;;;;5.97;4.22;;;10.00;78.20;;;;;;4968496;28;20046;-74
2022/02/24 11:40:10;;;;;;;7.38;2.92;;;10.20;77.80;;;;;;4967644;28;20066;-74
2022/02/24 11:42:41;;;;;;;5.10;2.85;;;10.10;78.30;;;;;;4968519;28;20521;-74
2022/02/24 11:45:29;;;;;;;7.57;2.97;;;10.00;76.70;;;;;;4968176;28;20092;-74
2022/02/24 11:48:00;;;;;;;9.18;2.80;;;10.20;77.40;;;;;;4962155;28;20039;-74
2022/02/24 11:50:40;;;;;;;5.38;2.58;;;10.40;77.70;;;;;;4967748;28;20129;-74
2022/02/24 11:53:51;;;;;;;7.28;2.75;;;10.60;77.40;;;;;;4968158;28;20712;-71
2022/02/24 11:56:21;;;;;;;6.15;3.33;;;10.70;78.30;;;;;;4962087;28;20031;-74
2022/02/24 11:59:04;;;;;;;6.30;2.85;;;10.60;76.00;;;;;;4964518;28;20031;-74
2022/02/24 12:01:41;;;;;;;4.80;2.55;;;10.60;75.20;;;;;;4967576;28;20039;-74
2022/02/24 12:04:30;;;;;;;6.43;2.75;;;10.60;76.40;;;;;;4966822;28;20145;-74
2022/02/24 12:07:14;;;;;;;7.00;2.95;;;10.60;77.20;;;;;;4966718;28;20054;-74
2022/02/24 12:09:40;;;;;;;6.45;2.90;;;10.60;76.60;;;;;;4967114;28;20143;-74
2022/02/24 12:12:23;;;;;;;5.88;2.97;;;10.70;76.60;;;;;;4967277;28;20035;-74
2022/02/24 12:15:01;;;;;;;10.68;3.13;;;10.60;76.30;;;;;;4966882;28;20031;-74
2022/02/24 12:17:43;;;;;;;4.78;2.30;;;10.70;77.10;;;;;;4967251;28;20067;-74
2022/02/24 12:20:24;;;;;;;7.50;3.88;;;10.70;76.30;;;;;;4967549;28;20039;-74
2022/02/24 12:22:50;;;;;;;6.70;2.80;;;10.60;76.30;;;;;;4967949;28;20077;-74
2022/02/24 12:25:28;;;;;;;7.10;2.95;;;10.80;76.10;;;;;;4966050;28;20043;-74
2022/02/24 12:28:07;;;;;;;7.82;3.22;;;10.70;74.90;;;;;;4967093;28;20137;-74
2022/02/24 12:30:42;;;;;;;7.95;3.15;;;10.70;76.10;;;;;;4967593;28;20074;-75
2022/02/24 12:33:10;;;;;;;5.80;2.60;;;10.90;74.60;;;;;;4966717;28;20485;-74
2022/02/24 12:35:38;;;;;;;5.97;2.42;;;10.90;75.00;;;;;;4964648;28;20137;-74
2022/02/24 12:38:06;;;;;;;6.38;3.95;;;10.90;74.80;;;;;;4962534;28;20027;-74
2022/02/24 12:40:36;;;;;;;12.07;7.43;;;10.90;73.80;;;;;;4967289;28;20117;-74
2022/02/24 12:43:04;;;;;;;10.40;3.90;;;11.10;73.80;;;;;;4967304;28;20122;-74
2022/02/24 12:45:31;;;;;;;12.57;7.22;;;11.00;73.30;;;;;;4966767;28;20572;-74
2022/02/24 12:47:59;;;;;;;6.30;3.30;;;11.10;74.00;;;;;;4966617;28;20054;-75
2022/02/24 12:50:32;;;;;;;8.32;4.47;;;11.10;72.90;;;;;;4966921;28;20037;-72
2022/02/24 12:53:13;;;;;;;7.95;4.22;;;11.20;74.50;;;;;;4967179;28;20189;-74
2022/02/24 12:55:40;;;;;;;6.53;4.07;;;11.20;73.60;;;;;;4967328;28;20049;-74
2022/02/24 12:58:10;;;;;;;10.70;3.78;;;11.30;74.10;;;;;;4967226;28;20034;-74
2022/02/24 13:00:38;;;;;;;8.00;4.25;;;11.30;73.00;;;;;;4970844;28;20366;-74
2022/02/24 13:03:04;;;;;;;19.02;11.52;;;11.30;73.40;;;;;;4970527;28;20053;-74